Dades meteomassalio
Diari Summary for Marc 21, 2017 Units:  English    Metric   Both
« Previous Day
Next Day »
Diari Semanal Mensual Anual Personalitzat
  Maxima: Minima: Mijana:
Temperatura: TemperatureC °F 7.5 °F 12.5 °F
Rosada: DewpointC °F 4.3 °F 6.3 °F
Humitat: Humidity % 52 % 67 %
Velocitat del vent: WindSpeedKMH mph 0.0 mph 11.1 mph
Racha vent: WindSpeedGustKMH mph - -
Vent:- - WNW
Pressio: PressurehPa in 1013.1 in -
Pluja: 0.0 in    
Historical Graphs
 
 
Tabular Data for Marc 21, 2017
Time Temperature Dew Point Pressure Wind Wind Speed Wind Gust Humidity Rainfall Rate (Hourly) solar Conditions
TemperatureC °F DewpointC °F PressurehPa in Calm     Humidity % HourlyPrecipMM in SolarRadiationWatts/m^2 W/m2 Conditions
00:01 10.0 °F 6.9 °F 1014.1 in Calm     81 % 0.0 in 0.0 W/m2 CLR
00:06 10.1 °F 6.9 °F 1014.1 in Calm     81 % 0.0 in 0.0 W/m2 CLR
00:11 10.0 °F 6.9 °F 1014.1 in Calm     81 % 0.0 in 0.0 W/m2 CLR
00:12 10.0 °F 6.9 °F 1014.1 in Calm     81 % 0.0 in 0.0 W/m2 CLR
00:17 9.9 °F 6.8 °F 1014.1 in Calm     81 % 0.0 in 0.0 W/m2 CLR
00:22 9.8 °F 6.8 °F 1014.1 in Calm     82 % 0.0 in 0.0 W/m2 CLR
00:27 9.7 °F 6.7 °F 1014.1 in Calm     82 % 0.0 in 0.0 W/m2 CLR
00:32 9.6 °F 6.9 °F 1014.1 in Calm     83 % 0.0 in 0.0 W/m2 CLR
00:37 9.6 °F 6.9 °F 1014.1 in Calm     83 % 0.0 in 0.0 W/m2 CLR
00:42 9.7 °F 7.0 °F 1014.1 in Calm     83 % 0.0 in 0.0 W/m2 CLR
00:47 9.8 °F 6.8 °F 1014.1 in Calm     82 % 0.0 in 0.0 W/m2 CLR
00:52 9.8 °F 6.8 °F 1014.1 in Calm     82 % 0.0 in 0.0 W/m2 CLR
00:57 9.7 °F 6.8 °F 1014.4 in Calm     82 % 0.0 in 0.0 W/m2 CLR
01:02 9.6 °F 6.6 °F 1014.4 in Calm     82 % 0.0 in 0.0 W/m2 CLR
01:07 9.5 °F 6.8 °F 1014.1 in Calm     83 % 0.0 in 0.0 W/m2 CLR
01:12 9.5 °F 6.8 °F 1014.1 in Calm     83 % 0.0 in 0.0 W/m2 CLR
01:17 9.4 °F 6.7 °F 1014.4 in Calm     83 % 0.0 in 0.0 W/m2 CLR
01:18 9.4 °F 6.7 °F 1014.4 in Calm     83 % 0.0 in 0.0 W/m2 CLR
01:23 9.4 °F 6.7 °F 1014.1 in Calm     83 % 0.0 in 0.0 W/m2 CLR
01:28 9.3 °F 6.6 °F 1014.4 in Calm     83 % 0.0 in 0.0 W/m2 CLR
01:33 9.3 °F 6.6 °F 1014.4 in Calm     83 % 0.0 in 0.0 W/m2 CLR
01:38 9.2 °F 6.4 °F 1014.4 in Calm     83 % 0.0 in 0.0 W/m2 CLR
01:43 9.1 °F 6.6 °F 1014.4 in Calm     84 % 0.0 in 0.0 W/m2 CLR
01:48 9.2 °F 6.7 °F 1014.4 in Calm     84 % 0.0 in 0.0 W/m2 CLR
01:53 9.3 °F 6.7 °F 1014.4 in Calm     84 % 0.0 in 0.0 W/m2 CLR
01:58 9.3 °F 6.7 °F 1014.4 in Calm     84 % 0.0 in 0.0 W/m2 CLR
02:03 9.3 °F 6.8 °F 1014.4 in Calm     84 % 0.0 in 0.0 W/m2 CLR
02:08 9.3 °F 6.8 °F 1014.4 in Calm     84 % 0.0 in 0.0 W/m2 CLR
02:13 9.3 °F 6.6 °F 1014.8 in Calm     83 % 0.0 in 0.0 W/m2 CLR
02:18 9.2 °F 6.6 °F 1014.8 in Calm     84 % 0.0 in 0.0 W/m2 CLR
02:23 9.1 °F 6.6 °F 1014.8 in Calm     84 % 0.0 in 0.0 W/m2 CLR
02:28 9.1 °F 6.7 °F 1014.8 in Calm     85 % 0.0 in 0.0 W/m2 CLR
02:33 9.0 °F 6.4 °F 1014.8 in Calm     84 % 0.0 in 0.0 W/m2 CLR
02:38 8.9 °F 6.4 °F 1014.8 in Calm     84 % 0.0 in 0.0 W/m2 CLR
02:43 9.0 °F 6.6 °F 1014.8 in Calm     85 % 0.0 in 0.0 W/m2 CLR
02:48 9.3 °F 7.1 °F 1014.8 in Calm     86 % 0.0 in 0.0 W/m2 CLR
02:53 9.7 °F 7.2 °F 1014.8 in Calm     84 % 0.0 in 0.0 W/m2 CLR
02:58 9.9 °F 7.2 °F 1014.8 in Calm     83 % 0.0 in 0.0 W/m2 CLR
03:03 10.2 °F 7.1 °F 1014.8 in Calm     81 % 0.0 in 0.0 W/m2 CLR
03:08 10.5 °F 7.0 °F 1015.1 in Calm     79 % 0.0 in 0.0 W/m2 CLR
03:13 10.8 °F 6.8 °F 1015.1 in Calm     76 % 0.0 in 0.0 W/m2 CLR
03:18 10.8 °F 6.5 °F 1015.1 in Calm     75 % 0.0 in 0.0 W/m2 CLR
03:23 10.9 °F 6.4 °F 1015.1 in WSW 3.7 mph   74 % 0.0 in 0.0 W/m2 CLR
03:28 11.0 °F 6.3 °F 1014.8 in West 5.6 mph 5.6 mph 73 % 0.0 in 0.0 W/m2 CLR
03:33 11.1 °F 6.2 °F 1015.1 in Calm     72 % 0.0 in 0.0 W/m2 CLR
03:38 10.9 °F 6.3 °F 1014.8 in WSW 1.9 mph   73 % 0.0 in 0.0 W/m2 CLR
03:43 10.7 °F 6.3 °F 1014.8 in Calm     74 % 0.0 in 0.0 W/m2 CLR
03:48 10.4 °F 6.2 °F 1014.8 in SW 1.9 mph 1.9 mph 75 % 0.0 in 0.0 W/m2 CLR
03:53 10.3 °F 5.9 °F 1014.8 in WNW 16.7 mph 16.7 mph 74 % 0.0 in 0.0 W/m2 CLR
03:58 10.7 °F 5.6 °F 1015.1 in WSW 14.8 mph 14.8 mph 71 % 0.0 in 0.0 W/m2 CLR
04:03 10.8 °F 5.6 °F 1015.1 in WNW 12.9 mph 12.9 mph 70 % 0.0 in 0.0 W/m2 CLR
04:08 10.8 °F 5.6 °F 1015.1 in WNW 16.7 mph 16.7 mph 70 % 0.0 in 0.0 W/m2 CLR
04:13 10.7 °F 5.4 °F 1015.1 in WNW 9.7 mph 9.7 mph 70 % 0.0 in 0.0 W/m2 CLR
04:18 10.4 °F 5.3 °F 1015.1 in WNW 9.3 mph 9.3 mph 71 % 0.0 in 0.0 W/m2 CLR
04:23 10.3 °F 5.2 °F 1015.1 in West 5.6 mph 5.6 mph 71 % 0.0 in 0.0 W/m2 CLR
04:28 10.3 °F 5.2 °F 1015.1 in West 14.5 mph 14.5 mph 71 % 0.0 in 0.0 W/m2 CLR
04:33 10.3 °F 5.3 °F 1015.1 in WSW 7.4 mph 7.4 mph 71 % 0.0 in 0.0 W/m2 CLR
04:38 10.3 °F 5.3 °F 1015.1 in West 13.0 mph 13.0 mph 71 % 0.0 in 0.0 W/m2 CLR
04:43 10.3 °F 5.3 °F 1015.5 in West 20.4 mph 20.4 mph 71 % 0.0 in 0.0 W/m2 CLR
04:48 10.2 °F 5.2 °F 1015.5 in WNW 9.3 mph 9.3 mph 71 % 0.0 in 0.0 W/m2 CLR
04:53 10.1 °F 5.1 °F 1015.5 in West 9.3 mph 9.3 mph 71 % 0.0 in 0.0 W/m2 CLR
04:58 10.0 °F 5.0 °F 1015.5 in West 5.6 mph 5.6 mph 71 % 0.0 in 0.0 W/m2 CLR
05:03 9.8 °F 5.0 °F 1015.5 in West 9.7 mph 9.7 mph 72 % 0.0 in 0.0 W/m2 CLR
05:08 9.8 °F 5.0 °F 1015.5 in West 14.8 mph 14.8 mph 72 % 0.0 in 0.0 W/m2 CLR
05:13 9.8 °F 5.0 °F 1015.1 in West 18.5 mph 18.5 mph 72 % 0.0 in 0.0 W/m2 CLR
05:18 9.7 °F 5.1 °F 1015.1 in WSW 16.7 mph 16.7 mph 73 % 0.0 in 0.0 W/m2 CLR
05:23 9.6 °F 4.9 °F 1015.5 in West 13.0 mph 13.0 mph 73 % 0.0 in 0.0 W/m2 CLR
05:28 9.4 °F 5.1 °F 1015.5 in WSW 5.6 mph 5.6 mph 74 % 0.0 in 0.0 W/m2 CLR
05:33 9.3 °F 4.9 °F 1015.5 in WSW 1.9 mph   74 % 0.0 in 0.0 W/m2 CLR
05:38 9.3 °F 4.9 °F 1015.5 in WSW 1.6 mph 1.6 mph 74 % 0.0 in 0.0 W/m2 CLR
05:43 9.1 °F 4.9 °F 1015.5 in Calm     75 % 0.0 in 0.0 W/m2 CLR
05:48 8.8 °F 4.8 °F 1015.5 in Calm     76 % 0.0 in 0.0 W/m2 CLR
05:53 8.7 °F 4.7 °F 1015.5 in Calm     76 % 0.0 in 0.0 W/m2 CLR
05:58 8.6 °F 4.8 °F 1015.5 in Calm     77 % 0.0 in 0.0 W/m2 CLR
05:59 8.6 °F 4.8 °F 1015.5 in Calm     77 % 0.0 in 0.0 W/m2 CLR
06:04 8.4 °F 4.8 °F 1015.5 in SSW 5.6 mph 5.6 mph 78 % 0.0 in 0.0 W/m2 CLR
06:09 8.4 °F 4.8 °F 1015.5 in SW 9.3 mph 9.3 mph 78 % 0.0 in 0.0 W/m2 CLR
06:14 8.4 °F 4.8 °F 1015.5 in SW 11.1 mph 11.1 mph 78 % 0.0 in 0.0 W/m2 CLR
06:19 8.6 °F 4.8 °F 1015.5 in SW 8.0 mph 8.0 mph 77 % 0.0 in 0.0 W/m2 CLR
06:24 8.6 °F 4.8 °F 1015.5 in SW 5.6 mph 5.6 mph 77 % 0.0 in 0.0 W/m2 CLR
06:34 8.4 °F 4.8 °F 1015.5 in SW 7.4 mph 7.4 mph 78 % 0.0 in 0.0 W/m2 CLR
06:39 8.3 °F 4.8 °F 1015.5 in Calm     79 % 0.0 in 0.0 W/m2 CLR
06:44 8.1 °F 4.7 °F 1015.5 in SSW 5.6 mph 5.6 mph 79 % 0.0 in 0.0 W/m2 CLR
06:49 8.0 °F 4.6 °F 1015.5 in West 5.6 mph 5.6 mph 79 % 0.0 in 0.0 W/m2 CLR
06:54 8.1 °F 4.8 °F 1015.8 in WSW 5.6 mph 5.6 mph 80 % 0.0 in 0.0 W/m2 CLR
06:59 8.1 °F 4.9 °F 1015.8 in Calm     80 % 0.0 in 0.0 W/m2 CLR
07:04 8.1 °F 4.7 °F 1015.8 in Calm     79 % 0.0 in 7.0 W/m2 OVC
07:09 8.0 °F 4.6 °F 1015.8 in Calm     79 % 0.0 in 11.0 W/m2 BKN
07:14 7.7 °F 4.3 °F 1015.8 in Calm     79 % 0.0 in 16.0 W/m2 BKN
07:19 7.5 °F 4.4 °F 1015.8 in Calm     81 % 0.0 in 19.0 W/m2 BKN
07:24 7.6 °F 4.7 °F 1015.8 in Calm     82 % 0.0 in 25.0 W/m2 BKN
07:29 7.7 °F 4.8 °F 1015.8 in Calm     82 % 0.0 in 30.0 W/m2 BKN
07:34 7.7 °F 4.7 °F 1015.8 in Calm     81 % 0.0 in 33.0 W/m2 BKN
07:39 7.9 °F 4.9 °F 1015.8 in Calm     81 % 0.0 in 40.0 W/m2 BKN
07:44 8.2 °F 5.1 °F 1015.8 in Calm     81 % 0.0 in 62.0 W/m2 SCT
07:49 8.4 °F 5.1 °F 1015.8 in Calm     80 % 0.0 in 74.0 W/m2 FEW
07:54 8.4 °F 5.2 °F 1015.8 in Calm     80 % 0.0 in 77.0 W/m2 FEW
07:59 8.6 °F 5.3 °F 1015.8 in Calm     80 % 0.0 in 97.0 W/m2 CLR
08:04 8.8 °F 5.5 °F 1015.8 in Calm     80 % 0.0 in 93.0 W/m2 CLR
08:09 9.0 °F 5.6 °F 1015.8 in Calm     79 % 0.0 in 102.0 W/m2 CLR
08:14 9.2 °F 5.7 °F 1016.1 in Calm     79 % 0.0 in 125.0 W/m2 CLR
08:19 9.3 °F 5.7 °F 1015.8 in Calm     78 % 0.0 in 142.0 W/m2 CLR
08:24 9.4 °F 5.6 °F 1016.1 in Calm     77 % 0.0 in 162.0 W/m2 CLR
08:29 9.6 °F 5.9 °F 1016.1 in Calm     78 % 0.0 in 165.0 W/m2 CLR
08:34 9.9 °F 6.2 °F 1016.1 in Calm     78 % 0.0 in 206.0 W/m2 CLR
08:39 10.2 °F 5.9 °F 1016.1 in WSW 5.6 mph 5.6 mph 75 % 0.0 in 229.0 W/m2 CLR
08:44 10.4 °F 5.8 °F 1016.1 in WNW 16.7 mph 16.7 mph 73 % 0.0 in 241.0 W/m2 CLR
08:49 10.6 °F 5.5 °F 1016.1 in West 14.8 mph 14.8 mph 71 % 0.0 in 265.0 W/m2 CLR
08:54 10.8 °F 5.7 °F 1016.1 in West 12.9 mph 12.9 mph 71 % 0.0 in 294.0 W/m2 CLR
08:59 10.9 °F 5.5 °F 1016.1 in WNW 18.5 mph 18.5 mph 69 % 0.0 in 279.0 W/m2 CLR
09:04 11.0 °F 5.5 °F 1016.1 in NW 13.0 mph 13.0 mph 69 % 0.0 in 327.0 W/m2 CLR
09:09 11.1 °F 5.8 °F 1016.1 in West 19.3 mph 19.3 mph 70 % 0.0 in 302.0 W/m2 CLR
09:14 11.2 °F 5.7 °F 1016.1 in WNW 22.2 mph 22.2 mph 69 % 0.0 in 315.0 W/m2 CLR
09:19 11.2 °F 5.7 °F 1016.1 in West 14.8 mph 14.8 mph 69 % 0.0 in 301.0 W/m2 CLR
09:24 11.2 °F 5.7 °F 1016.1 in NW 18.5 mph 18.5 mph 69 % 0.0 in 362.0 W/m2 CLR
09:29 11.4 °F 5.9 °F 1016.1 in WNW 11.1 mph 14.6 mph 69 % 0.0 in 350.0 W/m2 CLR
09:34 11.5 °F 6.0 °F 1016.1 in NNW 13.0 mph 13.0 mph 69 % 0.0 in 439.0 W/m2 CLR
09:39 11.6 °F 5.7 °F 1016.1 in NW 24.1 mph 24.1 mph 67 % 0.0 in 452.0 W/m2 CLR
09:44 11.7 °F 5.9 °F 1016.1 in NW 22.2 mph 22.2 mph 68 % 0.0 in 439.0 W/m2 CLR
09:49 11.8 °F 6.1 °F 1016.1 in WNW 18.5 mph 18.5 mph 68 % 0.0 in 469.0 W/m2 CLR
09:54 11.9 °F 5.9 °F 1016.1 in WNW 18.5 mph 18.5 mph 67 % 0.0 in 392.0 W/m2 CLR
09:59 11.9 °F 5.9 °F 1016.1 in WNW 11.1 mph 14.0 mph 67 % 0.0 in 404.0 W/m2 CLR
10:04 12.0 °F 5.8 °F 1016.1 in NW 19.3 mph 19.3 mph 66 % 0.0 in 510.0 W/m2 CLR
10:09 12.3 °F 6.3 °F 1016.1 in NW 9.3 mph 9.3 mph 67 % 0.0 in 424.0 W/m2 CLR
10:14 12.4 °F 6.2 °F 1016.1 in NW 19.3 mph 19.3 mph 66 % 0.0 in 413.0 W/m2 CLR
10:19 12.4 °F 6.5 °F 1016.1 in WNW 8.0 mph 8.0 mph 67 % 0.0 in 494.0 W/m2 CLR
10:24 12.6 °F 6.7 °F 1016.1 in WNW 18.5 mph 18.5 mph 67 % 0.0 in 582.0 W/m2 CLR
10:30 12.7 °F 6.1 °F 1016.1 in NNW 8.0 mph 8.0 mph 64 % 0.0 in 531.0 W/m2 CLR
10:35 12.9 °F 6.4 °F 1016.1 in NW 16.7 mph 16.7 mph 65 % 0.0 in 499.0 W/m2 CLR
10:40 12.9 °F 6.5 °F 1016.1 in NW 7.4 mph 7.9 mph 65 % 0.0 in 555.0 W/m2 CLR
10:45 13.1 °F 6.7 °F 1016.1 in WNW 18.5 mph 18.5 mph 65 % 0.0 in 652.0 W/m2 CLR
10:50 13.2 °F 6.6 °F 1016.1 in WNW 14.8 mph 14.8 mph 64 % 0.0 in 657.0 W/m2 CLR
10:55 13.3 °F 6.9 °F 1015.8 in WNW 18.5 mph 18.5 mph 65 % 0.0 in 529.0 W/m2 CLR
11:00 13.5 °F 7.1 °F 1016.1 in NNW 20.4 mph 20.4 mph 65 % 0.0 in 512.0 W/m2 CLR
11:05 13.3 °F 6.4 °F 1016.1 in WNW 18.5 mph 18.5 mph 63 % 0.0 in 459.0 W/m2 CLR
11:10 13.2 °F 6.6 °F 1016.1 in NW 14.8 mph 14.8 mph 64 % 0.0 in 483.0 W/m2 CLR
11:15 13.3 °F 6.7 °F 1016.1 in WNW 5.6 mph 6.6 mph 64 % 0.0 in 455.0 W/m2 CLR
11:20 13.6 °F 6.9 °F 1015.8 in WNW 11.1 mph 11.1 mph 64 % 0.0 in 541.0 W/m2 CLR
11:25 13.7 °F 7.1 °F 1015.8 in NNW 13.0 mph 13.0 mph 64 % 0.0 in 501.0 W/m2 CLR
11:30 13.8 °F 6.8 °F 1015.8 in West 14.8 mph 14.8 mph 63 % 0.0 in 413.0 W/m2 CLR
11:35 13.7 °F 6.5 °F 1015.8 in NW 7.4 mph 7.4 mph 62 % 0.0 in 408.0 W/m2 CLR
11:40 13.8 °F 7.1 °F 1015.8 in WNW 9.3 mph 9.3 mph 64 % 0.0 in 471.0 W/m2 CLR
11:45 13.9 °F 6.9 °F 1015.8 in NNW 24.1 mph 24.1 mph 63 % 0.0 in 455.0 W/m2 CLR
11:50 13.8 °F 6.9 °F 1015.8 in NNW 18.5 mph 18.5 mph 63 % 0.0 in 550.0 W/m2 CLR
11:55 13.9 °F 6.8 °F 1015.8 in NNW 20.4 mph 20.4 mph 62 % 0.0 in 471.0 W/m2 CLR
12:00 13.8 °F 6.7 °F 1015.8 in WNW 20.4 mph 20.4 mph 62 % 0.0 in 367.0 W/m2 CLR
12:05 13.8 °F 6.9 °F 1015.8 in NW 19.3 mph 19.3 mph 63 % 0.0 in 606.0 W/m2 CLR
12:10 14.1 °F 7.2 °F 1015.8 in NNW 18.5 mph 18.5 mph 63 % 0.0 in 677.0 W/m2 CLR
12:15 14.4 °F 7.2 °F 1015.8 in NW 8.0 mph 8.0 mph 62 % 0.0 in 717.0 W/m2 CLR
12:20 14.7 °F 7.3 °F 1015.5 in NW 22.2 mph 22.2 mph 61 % 0.0 in 701.0 W/m2 CLR
12:25 14.8 °F 7.3 °F 1015.8 in NW 18.5 mph 18.5 mph 61 % 0.0 in 694.0 W/m2 CLR
12:30 14.9 °F 7.4 °F 1015.5 in WNW 18.5 mph 18.5 mph 61 % 0.0 in 705.0 W/m2 CLR
12:35 15.1 °F 7.2 °F 1015.5 in NNW 16.1 mph 16.1 mph 59 % 0.0 in 770.0 W/m2 CLR
12:40 15.2 °F 7.3 °F 1015.5 in NNW 18.5 mph 19.1 mph 59 % 0.0 in 701.0 W/m2 CLR
12:45 15.2 °F 7.2 °F 1015.5 in NNW 20.4 mph 20.4 mph 59 % 0.0 in 631.0 W/m2 CLR
12:50 15.2 °F 7.2 °F 1015.1 in NNW 14.8 mph 14.8 mph 59 % 0.0 in 606.0 W/m2 CLR
12:55 15.1 °F 7.2 °F 1015.1 in NNW 5.6 mph 5.6 mph 59 % 0.0 in 552.0 W/m2 CLR
13:00 15.2 °F 6.9 °F 1015.1 in North 14.5 mph 14.5 mph 58 % 0.0 in 803.0 W/m2 CLR
13:05 15.2 °F 7.0 °F 1015.1 in WNW 16.7 mph 16.7 mph 58 % 0.0 in 464.0 W/m2 CLR
13:10 15.1 °F 6.9 °F 1015.1 in NW 12.9 mph 12.9 mph 58 % 0.0 in 480.0 W/m2 CLR
13:15 15.1 °F 6.8 °F 1015.1 in NW 14.8 mph 14.8 mph 58 % 0.0 in 445.0 W/m2 CLR
13:20 15.2 °F 7.4 °F 1015.1 in North 16.7 mph 16.7 mph 60 % 0.0 in 684.0 W/m2 CLR
13:25 15.2 °F 6.8 °F 1015.1 in North 24.1 mph 24.1 mph 57 % 0.0 in 782.0 W/m2 CLR
13:30 15.6 °F 7.6 °F 1015.1 in North 18.5 mph 18.5 mph 59 % 0.0 in 803.0 W/m2 CLR
13:35 15.8 °F 7.3 °F 1015.1 in NNW 22.5 mph 22.5 mph 57 % 0.0 in 675.0 W/m2 CLR
13:40 15.7 °F 7.4 °F 1014.8 in WNW 14.8 mph 14.8 mph 58 % 0.0 in 738.0 W/m2 CLR
13:45 15.8 °F 7.6 °F 1014.8 in NW 1.9 mph 1.9 mph 58 % 0.0 in 729.0 W/m2 CLR
13:50 16.2 °F 7.4 °F 1014.8 in NW 24.1 mph 24.1 mph 56 % 0.0 in 754.0 W/m2 CLR
13:55 16.1 °F 7.0 °F 1014.8 in NW 24.1 mph 24.1 mph 55 % 0.0 in 687.0 W/m2 CLR
14:00 16.0 °F 7.2 °F 1014.4 in West 18.5 mph 18.5 mph 56 % 0.0 in 540.0 W/m2 CLR
14:05 16.2 °F 7.7 °F 1014.4 in NNW 18.5 mph 18.5 mph 57 % 0.0 in 666.0 W/m2 CLR
14:10 16.4 °F 7.6 °F 1014.4 in NNW 18.5 mph 18.5 mph 56 % 0.0 in 749.0 W/m2 CLR
14:15 16.6 °F 7.2 °F 1014.4 in NW 20.4 mph 20.4 mph 54 % 0.0 in 740.0 W/m2 CLR
14:20 16.8 °F 7.4 °F 1014.4 in NNW 18.5 mph 18.5 mph 54 % 0.0 in 642.0 W/m2 CLR
14:25 16.7 °F 7.3 °F 1014.4 in NW 24.1 mph 24.1 mph 54 % 0.0 in 673.0 W/m2 CLR
14:30 16.7 °F 7.3 °F 1014.1 in North 16.7 mph 16.7 mph 54 % 0.0 in 649.0 W/m2 CLR
14:35 16.9 °F 7.8 °F 1014.1 in NW 5.6 mph 5.6 mph 55 % 0.0 in 698.0 W/m2 CLR
14:40 17.1 °F 7.4 °F 1014.1 in NNW 22.2 mph 22.2 mph 53 % 0.0 in 717.0 W/m2 CLR
14:45 17.0 °F 7.1 °F 1014.1 in NW 25.9 mph 25.9 mph 52 % 0.0 in 601.0 W/m2 CLR
14:50 16.9 °F 7.6 °F 1014.1 in NW 27.4 mph 27.4 mph 54 % 0.0 in 635.0 W/m2 CLR
14:55 17.0 °F 7.1 °F 1014.1 in NW 25.9 mph 25.9 mph 52 % 0.0 in 636.0 W/m2 CLR
15:00 16.9 °F 7.0 °F 1014.1 in North 24.1 mph 24.1 mph 52 % 0.0 in 383.0 W/m2 CLR
15:05 16.9 °F 7.3 °F 1014.1 in NNW 20.4 mph 20.4 mph 53 % 0.0 in 547.0 W/m2 CLR
15:10 17.2 °F 7.6 °F 1013.8 in WNW 18.5 mph 18.5 mph 53 % 0.0 in 603.0 W/m2 CLR
15:15 17.2 °F 7.2 °F 1013.8 in NNW 20.4 mph 20.4 mph 52 % 0.0 in 410.0 W/m2 CLR
15:20 16.7 °F 6.8 °F 1014.1 in NNW 29.0 mph 29.0 mph 52 % 0.0 in 403.0 W/m2 CLR
15:25 16.6 °F 7.3 °F 1014.1 in NNW 16.7 mph 16.7 mph 54 % 0.0 in 408.0 W/m2 CLR
15:30 16.6 °F 6.9 °F 1014.1 in NNW 25.9 mph 25.9 mph 53 % 0.0 in 396.0 W/m2 CLR
15:35 16.6 °F 6.9 °F 1013.8 in NW 22.2 mph 22.2 mph 53 % 0.0 in 475.0 W/m2 CLR
15:36 16.6 °F 7.2 °F 1013.8 in NNW 22.2 mph 22.2 mph 54 % 0.0 in 475.0 W/m2 CLR
15:41 16.8 °F 7.4 °F 1013.8 in North 5.6 mph 5.6 mph 54 % 0.0 in 589.0 W/m2 CLR
15:46 17.1 °F 7.4 °F 1013.8 in NNW 18.5 mph 18.5 mph 53 % 0.0 in 503.0 W/m2 CLR
15:51 16.9 °F 7.0 °F 1013.8 in North 14.8 mph 14.8 mph 52 % 0.0 in 492.0 W/m2 CLR
15:56 16.9 °F 7.0 °F 1013.8 in NNW 22.2 mph 22.2 mph 52 % 0.0 in 475.0 W/m2 CLR
16:01 17.2 °F 7.5 °F 1013.8 in NW 18.5 mph 18.5 mph 53 % 0.0 in 494.0 W/m2 CLR
16:06 17.1 °F 7.4 °F 1013.8 in NNW 24.1 mph 24.1 mph 53 % 0.0 in 387.0 W/m2 CLR
16:11 16.8 °F 7.2 °F 1013.8 in NW 13.0 mph 13.0 mph 53 % 0.0 in 336.0 W/m2 CLR
16:16 16.6 °F 7.3 °F 1013.8 in NW 18.5 mph 18.5 mph 54 % 0.0 in 401.0 W/m2 CLR
16:21 16.7 °F 7.3 °F 1013.8 in NNW 25.9 mph 25.9 mph 54 % 0.0 in 441.0 W/m2 CLR
16:26 16.6 °F 7.3 °F 1013.8 in NW 18.5 mph 18.5 mph 54 % 0.0 in 315.0 W/m2 CLR
16:31 16.5 °F 7.2 °F 1013.8 in NW 18.5 mph 18.5 mph 54 % 0.0 in 255.0 W/m2 CLR
16:36 16.3 °F 6.9 °F 1013.8 in Calm     54 % 0.0 in 229.0 W/m2 CLR
16:41 16.3 °F 7.0 °F 1013.8 in West 5.6 mph 5.6 mph 54 % 0.0 in 241.0 W/m2 CLR
16:46 16.6 °F 7.3 °F 1013.4 in WNW 18.5 mph 18.5 mph 54 % 0.0 in 497.0 W/m2 CLR
16:51 17.0 °F 7.3 °F 1013.4 in NNW 5.6 mph 5.6 mph 53 % 0.0 in 441.0 W/m2 CLR
16:56 17.2 °F 7.2 °F 1013.4 in North 18.5 mph 18.5 mph 52 % 0.0 in 369.0 W/m2 CLR
17:06 17.1 °F 7.1 °F 1013.4 in NNW 22.2 mph 22.2 mph 52 % 0.0 in 313.0 W/m2 CLR
17:11 16.9 °F 7.6 °F 1013.4 in NW 18.5 mph 18.5 mph 54 % 0.0 in 339.0 W/m2 CLR
17:16 16.9 °F 7.0 °F 1013.4 in NW 25.9 mph 25.9 mph 52 % 0.0 in 218.0 W/m2 CLR
17:21 16.6 °F 7.0 °F 1013.4 in WNW 9.3 mph 9.3 mph 53 % 0.0 in 190.0 W/m2 CLR
17:26 16.5 °F 6.9 °F 1013.4 in NNW 22.2 mph 22.2 mph 53 % 0.0 in 183.0 W/m2 CLR
17:31 16.5 °F 7.4 °F 1013.4 in WNW 18.5 mph 18.5 mph 55 % 0.0 in 329.0 W/m2 CLR
17:36 16.7 °F 7.1 °F 1013.4 in NW 22.2 mph 22.2 mph 53 % 0.0 in 336.0 W/m2 CLR
17:41 16.7 °F 7.1 °F 1013.1 in NW 14.8 mph 14.8 mph 53 % 0.0 in 301.0 W/m2 CLR
17:46 16.9 °F 6.9 °F 1013.1 in North 18.5 mph 18.5 mph 52 % 0.0 in 258.0 W/m2 CLR
17:51 16.7 °F 6.8 °F 1013.1 in NNW 3.7 mph 3.7 mph 52 % 0.0 in 232.0 W/m2 CLR
17:56 16.8 °F 6.8 °F 1013.1 in NNW 16.7 mph 16.7 mph 52 % 0.0 in 200.0 W/m2 CLR
18:01 16.7 °F 6.8 °F 1013.1 in NNW 16.7 mph 16.7 mph 52 % 0.0 in 98.0 W/m2 CLR
18:06 16.4 °F 6.8 °F 1013.1 in NW 14.8 mph 14.8 mph 53 % 0.0 in 42.0 W/m2 FEW
18:11 16.1 °F 6.8 °F 1013.1 in North 13.0 mph 13.0 mph 54 % 0.0 in 49.0 W/m2 SCT
18:16 16.0 °F 6.9 °F 1013.1 in North 1.9 mph 1.9 mph 55 % 0.0 in 123.0 W/m2 CLR
18:21 16.2 °F 7.1 °F 1013.1 in Calm     55 % 0.0 in 105.0 W/m2 CLR
18:26 16.2 °F 7.2 °F 1013.4 in NNW 5.6 mph 5.6 mph 55 % 0.0 in 109.0 W/m2 CLR
18:31 16.3 °F 7.2 °F 1013.4 in Calm     55 % 0.0 in 100.0 W/m2 CLR
18:36 16.2 °F 7.2 °F 1013.4 in NNW 16.7 mph 16.7 mph 55 % 0.0 in 97.0 W/m2 CLR
18:41 16.0 °F 6.9 °F 1013.4 in NW 11.3 mph 11.3 mph 55 % 0.0 in 77.0 W/m2 FEW
18:46 15.8 °F 7.1 °F 1013.8 in Calm     56 % 0.0 in 51.0 W/m2 SCT
18:51 15.6 °F 7.1 °F 1014.1 in NW 5.6 mph 5.6 mph 57 % 0.0 in 35.0 W/m2 BKN
18:56 15.4 °F 7.2 °F 1014.1 in NW 3.2 mph 3.2 mph 58 % 0.0 in 26.0 W/m2 BKN
18:58 15.4 °F 7.2 °F 1014.1 in NW 5.6 mph 5.6 mph 58 % 0.0 in 26.0 W/m2 BKN
19:03 15.2 °F 7.3 °F 1014.1 in North 11.1 mph 11.1 mph 59 % 0.0 in 21.0 W/m2 BKN
19:08 15.1 °F 7.1 °F 1014.4 in North 18.5 mph 18.5 mph 59 % 0.0 in 11.0 W/m2 BKN
19:13 14.9 °F 7.2 °F 1014.4 in North 13.0 mph 13.0 mph 60 % 0.0 in 5.0 W/m2 OVC
19:18 14.8 °F 7.1 °F 1014.8 in NNW 16.7 mph 16.7 mph 60 % 0.0 in 0.0 W/m2 OVC
19:23 14.7 °F 7.2 °F 1014.8 in NW 18.5 mph 18.5 mph 61 % 0.0 in 0.0 W/m2 CLR
19:28 14.7 °F 7.2 °F 1015.1 in NNW 16.7 mph 16.7 mph 61 % 0.0 in 0.0 W/m2 CLR
19:33 14.6 °F 6.9 °F 1015.1 in NNW 16.7 mph 16.7 mph 60 % 0.0 in 0.0 W/m2 CLR
19:38 14.6 °F 6.9 °F 1015.1 in NNW 11.1 mph 11.1 mph 60 % 0.0 in 0.0 W/m2 CLR
19:43 14.4 °F 6.5 °F 1015.1 in NNW 13.0 mph 13.0 mph 59 % 0.0 in 0.0 W/m2 CLR
19:48 14.3 °F 6.7 °F 1015.1 in NW 14.8 mph 14.8 mph 60 % 0.0 in 0.0 W/m2 CLR
19:53 14.3 °F 6.6 °F 1015.1 in NW 18.5 mph 18.5 mph 60 % 0.0 in 0.0 W/m2 CLR
19:58 14.2 °F 6.6 °F 1015.1 in NNW 11.1 mph 11.1 mph 60 % 0.0 in 0.0 W/m2 CLR
20:03 14.2 °F 6.7 °F 1015.5 in WNW 14.8 mph 14.8 mph 61 % 0.0 in 0.0 W/m2 CLR
20:08 14.1 °F 6.9 °F 1015.5 in NW 12.9 mph 12.9 mph 62 % 0.0 in 0.0 W/m2 CLR
20:13 14.0 °F 6.8 °F 1015.5 in WNW 14.8 mph 14.8 mph 62 % 0.0 in 0.0 W/m2 CLR
20:18 13.9 °F 6.7 °F 1015.5 in Calm     62 % 0.0 in 0.0 W/m2 CLR
20:23 13.8 °F 6.8 °F 1015.8 in NNW 22.2 mph 22.2 mph 63 % 0.0 in 0.0 W/m2 CLR
20:28 13.7 °F 6.7 °F 1015.5 in West 14.8 mph 14.8 mph 63 % 0.0 in 0.0 W/m2 CLR
20:33 13.6 °F 6.7 °F 1015.8 in NW 14.5 mph 14.5 mph 63 % 0.0 in 0.0 W/m2 CLR
20:38 13.4 °F 6.6 °F 1015.8 in WNW 20.9 mph 20.9 mph 63 % 0.0 in 0.0 W/m2 CLR
20:43 13.4 °F 6.5 °F 1015.8 in West 18.5 mph 18.5 mph 63 % 0.0 in 0.0 W/m2 CLR
20:48 13.4 °F 6.3 °F 1015.8 in West 18.5 mph 18.5 mph 62 % 0.0 in 0.0 W/m2 CLR
20:53 13.3 °F 6.2 °F 1015.8 in WNW 20.9 mph 20.9 mph 62 % 0.0 in 0.0 W/m2 CLR
20:58 13.2 °F 6.1 °F 1015.8 in WNW 18.5 mph 18.5 mph 62 % 0.0 in 0.0 W/m2 CLR
21:03 13.1 °F 6.2 °F 1015.8 in WNW 14.8 mph 14.8 mph 63 % 0.0 in 0.0 W/m2 CLR
21:08 13.0 °F 5.9 °F 1015.8 in WNW 20.4 mph 20.4 mph 62 % 0.0 in 0.0 W/m2 CLR
21:13 13.1 °F 5.9 °F 1015.8 in West 14.8 mph 14.8 mph 62 % 0.0 in 0.0 W/m2 CLR
21:18 12.9 °F 6.1 °F 1015.8 in West 14.8 mph 14.8 mph 63 % 0.0 in 0.0 W/m2 CLR
21:23 12.8 °F 5.9 °F 1015.8 in WSW 16.7 mph 16.7 mph 63 % 0.0 in 0.0 W/m2 CLR
21:33 12.7 °F 6.1 °F 1015.8 in West 9.3 mph 9.3 mph 64 % 0.0 in 0.0 W/m2 CLR
21:38 12.6 °F 5.9 °F 1015.8 in Calm     64 % 0.0 in 0.0 W/m2 CLR
21:43 12.4 °F 6.1 °F 1016.1 in West 11.1 mph 11.1 mph 65 % 0.0 in 0.0 W/m2 CLR
21:48 12.3 °F 5.9 °F 1016.1 in West 5.6 mph 5.6 mph 65 % 0.0 in 0.0 W/m2 CLR
21:53 12.2 °F 6.0 °F 1016.1 in West 18.5 mph 18.5 mph 66 % 0.0 in 0.0 W/m2 CLR
21:58 12.1 °F 5.9 °F 1016.1 in WNW 18.5 mph 18.5 mph 66 % 0.0 in 0.0 W/m2 CLR
22:03 12.1 °F 5.9 °F 1016.5 in WNW 18.5 mph 18.5 mph 66 % 0.0 in 0.0 W/m2 CLR
22:08 12.1 °F 5.9 °F 1016.5 in West 16.1 mph 16.1 mph 66 % 0.0 in 0.0 W/m2 CLR
22:13 12.0 °F 5.8 °F 1016.5 in West 17.7 mph 17.7 mph 66 % 0.0 in 0.0 W/m2 CLR
22:18 12.0 °F 5.8 °F 1016.5 in West 14.8 mph 14.8 mph 66 % 0.0 in 0.0 W/m2 CLR
22:23 12.0 °F 5.8 °F 1016.5 in West 20.4 mph 20.4 mph 66 % 0.0 in 0.0 W/m2 CLR
22:28 11.9 °F 5.8 °F 1016.5 in WNW 16.7 mph 16.7 mph 66 % 0.0 in 0.0 W/m2 CLR
22:38 11.9 °F 5.5 °F 1016.8 in WNW 5.6 mph 5.6 mph 65 % 0.0 in 0.0 W/m2 CLR
22:43 11.8 °F 5.4 °F 1016.8 in West 5.6 mph 5.6 mph 65 % 0.0 in 0.0 W/m2 CLR
22:48 11.7 °F 5.5 °F 1016.8 in WNW 14.8 mph 14.8 mph 66 % 0.0 in 0.0 W/m2 CLR
22:53 11.6 °F 5.4 °F 1016.8 in WNW 17.7 mph 17.7 mph 66 % 0.0 in 0.0 W/m2 CLR
22:58 11.6 °F 5.4 °F 1016.8 in WNW 24.1 mph 24.1 mph 66 % 0.0 in 0.0 W/m2 CLR
23:03 11.5 °F 5.4 °F 1016.8 in West 16.7 mph 16.7 mph 66 % 0.0 in 0.0 W/m2 CLR
23:08 11.4 °F 5.3 °F 1016.8 in WNW 16.7 mph 16.7 mph 66 % 0.0 in 0.0 W/m2 CLR
23:13 11.3 °F 5.2 °F 1016.8 in WNW 14.8 mph 14.8 mph 66 % 0.0 in 0.0 W/m2 CLR
23:18 11.3 °F 5.4 °F 1016.8 in WSW 16.7 mph 16.7 mph 67 % 0.0 in 0.0 W/m2 CLR
23:23 11.2 °F 5.3 °F 1016.8 in West 18.5 mph 18.5 mph 67 % 0.0 in 0.0 W/m2 CLR
23:28 11.2 °F 5.3 °F 1016.8 in WNW 20.4 mph 20.4 mph 67 % 0.0 in 0.0 W/m2 CLR
23:33 11.2 °F 5.3 °F 1016.8 in WNW 22.2 mph 22.2 mph 67 % 0.0 in 0.0 W/m2 CLR
23:38 11.1 °F 5.2 °F 1016.8 in West 13.0 mph 13.0 mph 67 % 0.0 in 0.0 W/m2 CLR
23:43 11.1 °F 5.2 °F 1016.8 in West 18.5 mph 18.5 mph 67 % 0.0 in 0.0 W/m2 CLR
23:48 11.1 °F 4.9 °F 1016.8 in West 24.1 mph 24.1 mph 66 % 0.0 in 0.0 W/m2 CLR
23:53 11.1 °F 4.9 °F 1016.8 in WSW 18.5 mph 18.5 mph 66 % 0.0 in 0.0 W/m2 CLR
23:58 10.9 °F 4.8 °F 1016.8 in West 18.5 mph 18.5 mph 66 % 0.0 in 0.0 W/m2 CLR
Lo Temps de Massalio
Compliments of Weather Underground - 1.25 mb